createdAt,value
2022-08-27T09:40:23.467Z,14.93
2022-08-27T09:42:53.394Z,16.23
2022-08-27T09:45:26.361Z,13.27
2022-08-27T09:50:23.175Z,15.47
2022-08-27T09:52:58.842Z,12.37
2022-08-27T09:55:39.283Z,16.53
2022-08-27T09:58:07.914Z,14.77
2022-08-27T10:00:38.343Z,18.43
2022-08-27T10:03:05.355Z,22.03
2022-08-27T10:16:19.587Z,10.53
2022-08-27T10:22:12.254Z,10.60
2022-08-27T10:26:03.327Z,10.20
2022-08-27T10:28:38.857Z,10.67
2022-08-27T10:31:24.054Z,14.37
2022-08-27T10:33:56.951Z,9.60
2022-08-27T10:36:41.836Z,10.20
2022-08-27T10:39:16.439Z,13.03
2022-08-27T10:41:46.443Z,11.70
2022-08-27T10:44:28.893Z,9.10
2022-08-27T10:47:11.408Z,10.57
2022-08-27T10:49:40.794Z,10.63
2022-08-27T10:52:19.736Z,10.30
2022-08-27T10:54:51.248Z,8.20
2022-08-27T10:57:53.894Z,7.60
2022-08-27T11:00:20.066Z,6.83
2022-08-27T11:02:53.916Z,9.93
2022-08-27T11:05:26.797Z,7.80
2022-08-27T11:08:13.715Z,7.30
2022-08-27T11:10:43.245Z,7.57
2022-08-27T11:13:29.794Z,8.07
2022-08-27T11:15:56.652Z,13.60
2022-08-27T11:18:42.123Z,10.73
2022-08-27T11:21:19.817Z,10.63
2022-08-27T11:23:48.410Z,9.40
2022-08-27T11:27:33.544Z,8.27
2022-08-27T11:30:04.257Z,6.17
2022-08-27T11:32:46.248Z,8.73
2022-08-27T11:35:16.869Z,7.33
2022-08-27T11:37:43.105Z,8.77
2022-08-27T11:40:18.949Z,9.47
2022-08-27T11:42:53.100Z,7.17
2022-08-27T11:45:28.487Z,7.60
2022-08-27T11:47:56.213Z,5.73
2022-08-27T11:52:12.930Z,5.67
2022-08-27T11:54:46.925Z,7.83
2022-08-27T11:57:25.964Z,7.80
2022-08-27T12:01:04.598Z,7.17
2022-08-27T12:03:33.384Z,7.53
2022-08-27T12:06:01.673Z,8.80
2022-08-27T12:08:33.011Z,9.10
